createdAt,value
2023-03-21T00:00:46.015Z,7.65
2023-03-21T00:03:15.507Z,10.07
2023-03-21T00:05:49.829Z,5.82
2023-03-21T00:08:17.492Z,8.27
2023-03-21T00:10:45.760Z,5.97
2023-03-21T00:13:14.028Z,6.60
2023-03-21T00:16:06.173Z,7.68
2023-03-21T00:18:41.865Z,6.47
2023-03-21T00:21:39.600Z,5.50
2023-03-21T00:24:03.027Z,6.90
2023-03-21T00:26:31.592Z,5.38
2023-03-21T00:28:59.310Z,4.97
2023-03-21T00:31:27.219Z,5.35
2023-03-21T00:33:54.722Z,6.50
2023-03-21T00:36:25.805Z,5.03
2023-03-21T00:38:53.486Z,4.93
2023-03-21T00:41:35.233Z,4.22
2023-03-21T00:44:08.731Z,5.68
2023-03-21T00:46:45.618Z,5.55
2023-03-21T00:49:14.875Z,4.65
2023-03-21T00:51:44.512Z,5.13
2023-03-21T00:54:13.310Z,3.95
2023-03-21T00:56:40.914Z,5.53
2023-03-21T00:59:08.547Z,6.47
2023-03-21T01:01:36.185Z,5.28
2023-03-21T01:04:05.582Z,4.47
2023-03-21T01:06:34.122Z,5.03
2023-03-21T01:09:02.963Z,5.45
2023-03-21T01:11:30.667Z,5.47
2023-03-21T01:14:14.787Z,5.05
2023-03-21T01:16:46.801Z,4.35
2023-03-21T01:19:25.029Z,7.18
2023-03-21T01:21:53.967Z,4.15
2023-03-21T01:24:22.908Z,4.35
2023-03-21T01:26:50.431Z,5.40
2023-03-21T01:29:17.968Z,5.40
2023-03-21T01:31:45.567Z,5.70
2023-03-21T01:34:13.429Z,4.10
2023-03-21T01:36:41.066Z,4.90
2023-03-21T01:39:08.637Z,6.75
2023-03-21T01:41:43.461Z,4.78
2023-03-21T01:44:16.023Z,6.30
2023-03-21T01:46:57.076Z,10.00
2023-03-21T01:49:34.333Z,4.97
2023-03-21T01:52:14.006Z,6.38
2023-03-21T01:54:44.527Z,6.25
2023-03-21T01:57:19.786Z,5.43
2023-03-21T01:59:51.208Z,6.65
2023-03-21T02:02:23.235Z,5.38
2023-03-21T02:04:55.974Z,6.10
2023-03-21T02:07:28.787Z,4.53
2023-03-21T02:09:57.392Z,7.18
2023-03-21T02:12:27.404Z,6.32
2023-03-21T02:14:56.840Z,7.97
2023-03-21T02:17:32.113Z,9.13
2023-03-21T02:20:28.296Z,7.82
2023-03-21T02:23:29.175Z,6.15
2023-03-21T02:26:18.372Z,5.22
2023-03-21T02:28:56.929Z,7.75
2023-03-21T02:31:40.744Z,5.50
2023-03-21T02:34:32.708Z,7.38
2023-03-21T02:37:07.372Z,6.57
2023-03-21T02:39:49.483Z,5.20
2023-03-21T02:42:22.750Z,7.70
2023-03-21T02:44:59.376Z,6.00
2023-03-21T02:47:34.544Z,5.70
2023-03-21T02:50:10.173Z,10.82
2023-03-21T02:52:41.465Z,5.15
2023-03-21T02:55:14.191Z,6.68
2023-03-21T02:57:45.236Z,4.38
2023-03-21T03:00:19.002Z,6.70
2023-03-21T03:02:48.880Z,7.45
2023-03-21T03:05:21.758Z,5.72
2023-03-21T03:08:18.506Z,7.47
2023-03-21T03:10:59.549Z,5.50
2023-03-21T03:13:43.788Z,5.40
2023-03-21T03:16:22.845Z,6.53
2023-03-21T03:18:54.179Z,4.78
2023-03-21T03:21:25.986Z,4.30
2023-03-21T03:23:58.893Z,4.83
2023-03-21T03:26:31.196Z,6.43
2023-03-21T03:29:02.819Z,7.25
2023-03-21T03:31:34.575Z,5.85
2023-03-21T03:34:07.093Z,5.50
2023-03-21T03:36:38.992Z,9.07
2023-03-21T03:39:11.587Z,11.50
2023-03-21T03:42:05.967Z,7.07
2023-03-21T03:44:33.389Z,7.80
2023-03-21T03:47:06.934Z,9.27
2023-03-21T03:49:38.672Z,6.03
2023-03-21T03:52:13.038Z,5.83
2023-03-21T03:54:44.960Z,8.27
2023-03-21T03:57:13.925Z,6.70
2023-03-21T03:59:43.067Z,7.47
2023-03-21T04:02:10.960Z,7.45
2023-03-21T04:04:38.890Z,8.75
2023-03-21T04:07:07.738Z,6.97
2023-03-21T04:09:44.234Z,5.45
2023-03-21T04:12:14.334Z,4.85
2023-03-21T04:14:47.176Z,5.25
2023-03-21T04:17:15.687Z,6.30
2023-03-21T04:19:43.516Z,5.85
2023-03-21T04:22:11.866Z,6.00
2023-03-21T04:24:39.934Z,4.93
2023-03-21T04:27:07.742Z,7.13
2023-03-21T04:29:36.620Z,6.82
2023-03-21T04:32:04.295Z,3.72
2023-03-21T04:34:31.830Z,4.57
2023-03-21T04:36:59.385Z,4.07
2023-03-21T04:39:26.952Z,5.78
2023-03-21T04:41:54.455Z,4.75
2023-03-21T04:44:22.062Z,3.85
2023-03-21T04:46:51.765Z,4.20
2023-03-21T04:49:19.472Z,4.10
2023-03-21T04:51:46.933Z,5.28
2023-03-21T04:56:42.821Z,3.53
2023-03-21T04:59:12.646Z,5.43
2023-03-21T05:01:41.202Z,3.75
2023-03-21T05:04:10.813Z,3.80
2023-03-21T05:06:38.476Z,4.22
2023-03-21T05:09:07.032Z,5.80
2023-03-21T05:11:37.761Z,4.45
2023-03-21T05:14:05.792Z,3.50
2023-03-21T05:16:34.792Z,3.50
2023-03-21T05:19:04.968Z,4.68
2023-03-21T05:21:41.294Z,3.22
2023-03-21T05:24:12.243Z,8.45
2023-03-21T05:26:40.518Z,4.85
2023-03-21T05:29:08.779Z,10.07
2023-03-21T05:31:36.465Z,5.50
2023-03-21T05:34:04.235Z,3.65
2023-03-21T05:58:56.699Z,8.20
2023-03-21T06:01:25.037Z,8.68
2023-03-21T06:17:49.747Z,11.77
2023-03-21T06:20:52.138Z,11.13
2023-03-21T06:34:28.530Z,12.18
2023-03-21T06:47:25.411Z,10.15
2023-03-21T07:00:38.336Z,7.82
2023-03-21T07:03:06.033Z,7.97
2023-03-21T07:05:36.607Z,7.63
2023-03-21T07:08:05.335Z,5.18
2023-03-21T07:10:32.981Z,9.02
2023-03-21T07:13:01.197Z,4.68
2023-03-21T07:15:28.734Z,6.80
2023-03-21T07:17:56.402Z,8.60
2023-03-21T07:20:24.032Z,6.25
2023-03-21T07:22:52.888Z,6.40
2023-03-21T07:25:20.741Z,5.43
2023-03-21T07:27:48.264Z,6.60
2023-03-21T07:30:16.626Z,8.05
2023-03-21T07:32:45.586Z,8.75
2023-03-21T07:35:16.013Z,7.25
2023-03-21T07:37:44.080Z,7.60
2023-03-21T07:40:14.008Z,8.00
2023-03-21T07:42:42.115Z,10.55
2023-03-21T07:45:11.271Z,9.40
2023-03-21T07:47:38.786Z,7.68
2023-03-21T07:50:06.993Z,11.43
2023-03-21T07:52:34.499Z,6.57
2023-03-21T07:55:02.018Z,6.15
2023-03-21T07:57:30.852Z,8.20
2023-03-21T07:59:58.432Z,5.07
2023-03-21T08:02:26.503Z,6.25
2023-03-21T08:04:54.033Z,6.07
2023-03-21T08:07:21.589Z,5.75
2023-03-21T08:09:49.238Z,5.55
2023-03-21T08:12:16.845Z,4.45
2023-03-21T08:14:46.170Z,3.45
2023-03-21T08:17:13.674Z,3.40
2023-03-21T08:19:41.205Z,3.10
2023-03-21T08:22:08.820Z,2.78
2023-03-21T08:24:36.318Z,3.75
2023-03-21T08:27:03.896Z,2.75
2023-03-21T08:29:31.428Z,2.95
2023-03-21T08:32:00.399Z,4.80
2023-03-21T08:34:27.914Z,2.58
2023-03-21T08:36:55.507Z,4.43
2023-03-21T08:39:24.855Z,4.07
2023-03-21T08:41:52.439Z,5.15
2023-03-21T08:44:20.190Z,4.55
2023-03-21T08:46:47.777Z,6.82
2023-03-21T08:49:16.613Z,2.70
2023-03-21T08:51:45.803Z,2.67
2023-03-21T08:54:20.622Z,2.45
2023-03-21T08:56:48.657Z,5.15
2023-03-21T08:59:16.415Z,2.55
2023-03-21T09:01:44.424Z,3.65
2023-03-21T09:04:12.022Z,1.95
2023-03-21T09:06:47.854Z,3.40
2023-03-21T09:09:15.457Z,1.70
2023-03-21T09:11:43.141Z,5.30
2023-03-21T09:14:11.711Z,3.13
2023-03-21T09:16:39.439Z,1.90
2023-03-21T09:19:08.639Z,5.10
2023-03-21T09:21:36.766Z,3.63
2023-03-21T09:24:06.581Z,2.58
2023-03-21T09:26:34.895Z,4.38
2023-03-21T09:29:03.090Z,1.90
2023-03-21T09:31:30.939Z,3.78
2023-03-21T09:33:58.907Z,7.45
2023-03-21T09:36:27.289Z,3.45
2023-03-21T09:38:56.933Z,1.75
2023-03-21T09:41:42.015Z,3.70
2023-03-21T09:44:24.719Z,3.20
2023-03-21T09:46:59.440Z,1.67
2023-03-21T09:49:31.060Z,3.78
2023-03-21T09:52:03.583Z,1.33
2023-03-21T09:54:34.758Z,2.15
2023-03-21T09:57:14.951Z,6.70
2023-03-21T09:59:42.936Z,1.75
2023-03-21T10:02:35.951Z,1.55
2023-03-21T10:07:41.787Z,1.23
2023-03-21T10:10:17.590Z,1.48
2023-03-21T10:12:48.769Z,0.95
2023-03-21T10:15:19.287Z,1.48
2023-03-21T10:17:53.815Z,2.08
2023-03-21T10:20:23.837Z,2.85
2023-03-21T10:22:53.532Z,1.83
2023-03-21T10:25:25.361Z,1.35
2023-03-21T10:27:54.319Z,1.05
2023-03-21T10:30:29.553Z,1.38
2023-03-21T10:33:02.405Z,2.35
2023-03-21T10:35:31.502Z,1.77
2023-03-21T10:37:59.052Z,3.00
2023-03-21T10:40:26.570Z,1.33
2023-03-21T10:42:57.538Z,1.63
2023-03-21T10:45:25.516Z,1.50
2023-03-21T10:47:55.377Z,2.70
2023-03-21T10:50:26.600Z,1.70
2023-03-21T10:53:00.425Z,1.25
2023-03-21T10:55:31.999Z,2.20
2023-03-21T10:58:07.650Z,1.33
2023-03-21T11:00:38.386Z,1.95
2023-03-21T11:03:06.866Z,1.63
2023-03-21T11:05:38.446Z,3.40
2023-03-21T11:08:08.050Z,1.83
2023-03-21T11:10:38.001Z,1.77
2023-03-21T11:13:18.091Z,1.88
2023-03-21T11:15:53.789Z,1.52
2023-03-21T11:18:23.717Z,3.35
2023-03-21T11:20:54.010Z,1.88
2023-03-21T11:23:23.041Z,2.30
2023-03-21T11:25:51.812Z,1.27
2023-03-21T11:28:23.667Z,2.45
2023-03-21T11:30:54.412Z,2.50
2023-03-21T11:33:27.007Z,1.40
2023-03-21T11:36:02.830Z,3.30
2023-03-21T11:38:33.221Z,3.28
2023-03-21T11:41:03.037Z,1.92
2023-03-21T11:43:35.931Z,2.33
2023-03-21T11:46:08.326Z,3.15
2023-03-21T11:51:17.838Z,1.90
2023-03-21T11:53:50.000Z,2.00
2023-03-21T11:59:06.879Z,1.55
2023-03-21T12:01:43.137Z,4.38
2023-03-21T12:04:21.722Z,2.97
2023-03-21T12:06:57.350Z,1.40
2023-03-21T12:09:35.932Z,1.92
2023-03-21T12:12:22.057Z,1.77
2023-03-21T12:15:02.215Z,2.22
2023-03-21T12:17:41.429Z,9.73
2023-03-21T12:20:27.338Z,2.92
2023-03-21T12:23:12.020Z,2.33
2023-03-21T12:25:44.814Z,2.65
2023-03-21T12:28:32.491Z,9.07
2023-03-21T12:31:10.450Z,4.78
2023-03-21T12:33:50.280Z,3.55
2023-03-21T12:36:31.754Z,5.60
2023-03-21T12:39:13.368Z,3.63
2023-03-21T12:41:46.551Z,3.30
2023-03-21T12:44:16.388Z,3.85
2023-03-21T12:46:48.458Z,3.17
2023-03-21T12:49:19.157Z,9.48
2023-03-21T12:51:52.185Z,5.97
2023-03-21T12:54:26.478Z,2.70
2023-03-21T12:57:02.726Z,3.63
2023-03-21T12:59:37.167Z,5.20
2023-03-21T13:21:01.824Z,2.03
2023-03-21T13:23:37.249Z,4.07
2023-03-21T13:26:09.323Z,3.75
2023-03-21T13:28:39.688Z,4.75
2023-03-21T13:31:19.709Z,6.13
2023-03-21T13:33:50.744Z,2.35
2023-03-21T13:36:25.848Z,1.77
2023-03-21T13:38:56.234Z,1.85
2023-03-21T13:41:31.421Z,1.77
2023-03-21T13:44:09.892Z,1.83
2023-03-21T13:46:53.475Z,4.85
2023-03-21T13:49:29.259Z,3.08
2023-03-21T13:52:01.304Z,1.80
2023-03-21T13:54:44.681Z,3.40
2023-03-21T13:57:24.679Z,2.90
2023-03-21T14:00:21.089Z,2.58
2023-03-21T14:02:59.946Z,2.45
2023-03-21T14:05:29.491Z,1.98
2023-03-21T14:08:13.650Z,3.65
2023-03-21T14:10:46.140Z,1.38
2023-03-21T14:13:18.389Z,5.13
2023-03-21T14:15:55.198Z,10.15
2023-03-21T14:18:52.498Z,8.77
2023-03-21T14:21:23.815Z,3.03
2023-03-21T14:23:59.733Z,1.25
2023-03-21T14:26:30.296Z,2.10
2023-03-21T14:28:58.696Z,1.25
2023-03-21T14:31:27.540Z,1.80
2023-03-21T14:33:58.780Z,2.85
2023-03-21T14:36:28.401Z,0.90
2023-03-21T14:39:05.181Z,1.58
2023-03-21T14:41:34.725Z,2.30
2023-03-21T14:44:14.942Z,1.90
2023-03-21T14:46:43.579Z,1.00
2023-03-21T14:49:13.064Z,1.10
2023-03-21T14:51:42.479Z,3.38
2023-03-21T14:54:17.581Z,3.30
2023-03-21T14:56:48.301Z,1.58
2023-03-21T14:59:18.543Z,2.17
2023-03-21T15:01:48.565Z,1.20
2023-03-21T15:04:17.715Z,1.45
2023-03-21T15:06:53.708Z,3.15
2023-03-21T15:09:27.153Z,1.95
2023-03-21T15:11:56.454Z,1.90
2023-03-21T15:14:31.515Z,1.10
2023-03-21T15:17:02.070Z,1.35
2023-03-21T15:19:33.573Z,1.20
2023-03-21T15:22:09.740Z,0.83
2023-03-21T15:24:42.407Z,0.90
2023-03-21T15:27:17.471Z,0.93
2023-03-21T15:29:46.200Z,0.73
2023-03-21T15:32:18.383Z,2.58
2023-03-21T15:34:47.111Z,1.23
2023-03-21T15:37:19.025Z,0.93
2023-03-21T15:39:49.318Z,1.10
2023-03-21T15:42:31.095Z,1.75
2023-03-21T15:45:02.350Z,1.63
2023-03-21T15:47:50.983Z,1.33
2023-03-21T15:50:27.583Z,1.25
2023-03-21T15:52:56.939Z,1.33
2023-03-21T15:55:30.640Z,0.82
2023-03-21T15:58:04.574Z,1.58
2023-03-21T16:00:39.732Z,1.27
2023-03-21T16:03:17.177Z,0.85
2023-03-21T16:06:03.125Z,4.30
2023-03-21T16:08:35.790Z,1.40
2023-03-21T16:11:17.353Z,2.20
2023-03-21T16:13:44.970Z,1.08
2023-03-21T16:16:18.053Z,3.17
2023-03-21T16:18:45.842Z,1.08
2023-03-21T16:21:14.754Z,1.25
2023-03-21T16:23:45.905Z,2.00
2023-03-21T16:26:17.496Z,2.28
2023-03-21T16:28:46.015Z,3.88
2023-03-21T16:31:16.405Z,0.95
2023-03-21T16:33:44.379Z,2.17
2023-03-21T16:36:15.559Z,2.15
2023-03-21T16:38:43.271Z,1.40
2023-03-21T16:41:11.953Z,2.25
2023-03-21T16:43:43.252Z,1.50
2023-03-21T16:46:14.544Z,2.53
2023-03-21T16:48:42.527Z,1.50
2023-03-21T16:51:14.013Z,2.33
2023-03-21T16:53:41.644Z,1.33
2023-03-21T16:56:15.645Z,5.53
2023-03-21T16:58:44.613Z,1.13
2023-03-21T17:01:15.478Z,1.42
2023-03-21T17:03:43.904Z,2.05
2023-03-21T17:06:15.469Z,2.03
2023-03-21T17:08:43.219Z,2.77
2023-03-21T17:11:11.710Z,2.90
2023-03-21T17:13:39.300Z,1.45
2023-03-21T17:16:08.824Z,0.82
2023-03-21T17:18:36.403Z,1.67
2023-03-21T17:21:04.369Z,2.25
2023-03-21T17:23:31.921Z,2.42
2023-03-21T17:25:59.599Z,2.47
2023-03-21T17:28:27.203Z,2.00
2023-03-21T17:30:54.828Z,4.05
2023-03-21T17:33:23.891Z,2.60
2023-03-21T17:35:51.477Z,5.50
2023-03-21T17:38:19.099Z,3.72
2023-03-21T17:40:46.812Z,4.82
2023-03-21T17:43:18.275Z,3.15
2023-03-21T17:45:45.929Z,6.10
2023-03-21T17:48:13.530Z,7.78
2023-03-21T17:50:43.224Z,7.43
2023-03-21T17:53:10.835Z,6.07
2023-03-21T17:55:38.406Z,8.80
2023-03-21T17:58:06.297Z,5.75
2023-03-21T18:00:33.922Z,5.60
2023-03-21T18:03:01.516Z,2.45
2023-03-21T18:05:29.779Z,8.35
2023-03-21T18:08:13.896Z,4.95
2023-03-21T18:10:42.905Z,5.47
2023-03-21T18:13:11.486Z,6.10
2023-03-21T18:15:44.176Z,4.90
2023-03-21T18:18:12.969Z,6.82
2023-03-21T18:20:58.539Z,5.55
2023-03-21T18:23:27.792Z,3.40
2023-03-21T18:25:55.567Z,4.35
2023-03-21T18:28:23.240Z,5.47
2023-03-21T18:33:40.411Z,1.45
2023-03-21T18:36:08.941Z,5.53
2023-03-21T18:38:38.341Z,4.65
2023-03-21T18:41:07.629Z,3.85
2023-03-21T18:46:24.204Z,4.53
2023-03-21T18:48:52.424Z,3.53
2023-03-21T18:51:20.068Z,5.38
2023-03-21T18:53:49.110Z,4.70
2023-03-21T18:59:05.874Z,6.63
2023-03-21T19:07:07.723Z,7.88
2023-03-21T19:12:25.919Z,9.60
2023-03-21T19:14:53.515Z,5.65
2023-03-21T19:20:11.989Z,5.53
2023-03-21T19:22:39.616Z,3.20
2023-03-21T19:25:10.695Z,4.43
2023-03-21T19:27:39.791Z,5.07
2023-03-21T19:30:15.279Z,4.57
2023-03-21T19:32:51.235Z,10.20
2023-03-21T19:35:20.223Z,5.80
2023-03-21T19:37:48.564Z,6.75
2023-03-21T19:40:22.466Z,5.25
2023-03-21T19:42:50.696Z,3.40
2023-03-21T19:45:18.334Z,4.85
2023-03-21T19:47:46.269Z,5.35
2023-03-21T19:53:01.768Z,6.05
2023-03-21T19:55:30.903Z,8.70
2023-03-21T19:57:58.875Z,9.52
2023-03-21T20:00:26.497Z,14.80
2023-03-21T20:02:54.333Z,30.90
2023-03-21T20:05:22.283Z,27.63
2023-03-21T20:07:57.094Z,24.98
2023-03-21T20:10:34.858Z,31.77
2023-03-21T20:13:03.973Z,14.68
2023-03-21T20:15:32.260Z,11.00
2023-03-21T20:18:00.241Z,5.03
2023-03-21T20:20:28.049Z,6.85
2023-03-21T20:23:06.810Z,5.82
2023-03-21T20:25:34.899Z,5.75
2023-03-21T20:28:15.791Z,5.75
2023-03-21T20:30:48.617Z,9.02
2023-03-21T20:33:16.194Z,8.35
2023-03-21T20:36:30.888Z,8.13
2023-03-21T20:38:31.880Z,9.48
2023-03-21T20:40:59.444Z,8.27
2023-03-21T20:44:17.463Z,6.28
2023-03-21T20:46:17.439Z,6.78
2023-03-21T20:48:48.756Z,6.25
2023-03-21T20:52:12.398Z,5.30
2023-03-21T20:54:05.159Z,4.40
2023-03-21T20:56:32.997Z,4.90
2023-03-21T20:59:15.707Z,4.20
2023-03-21T21:01:45.410Z,6.63
2023-03-21T21:04:19.237Z,6.40
2023-03-21T21:06:47.689Z,6.70
2023-03-21T21:09:15.522Z,7.03
2023-03-21T21:12:06.055Z,5.03
2023-03-21T21:14:31.964Z,4.47
2023-03-21T21:17:02.593Z,4.95
2023-03-21T21:19:36.051Z,3.55
2023-03-21T21:22:03.635Z,3.45
2023-03-21T21:24:32.031Z,5.30
2023-03-21T21:26:59.560Z,6.10
2023-03-21T21:29:28.323Z,3.58
2023-03-21T21:31:57.228Z,4.18
2023-03-21T21:34:24.787Z,4.47
2023-03-21T21:36:52.336Z,4.45
2023-03-21T21:39:21.870Z,5.78
2023-03-21T21:41:49.656Z,4.85
2023-03-21T21:44:19.221Z,5.50
2023-03-21T21:46:47.114Z,5.18
2023-03-21T21:49:16.466Z,5.05
2023-03-21T21:51:47.732Z,7.45
2023-03-21T21:54:18.227Z,5.75
2023-03-21T21:56:48.220Z,7.57
2023-03-21T21:59:17.085Z,6.93
2023-03-21T22:01:46.632Z,5.80
2023-03-21T22:04:17.963Z,6.07
2023-03-21T22:06:47.507Z,4.90
2023-03-21T22:09:15.813Z,7.75
2023-03-21T22:11:43.724Z,5.53
2023-03-21T22:14:11.227Z,5.97
2023-03-21T22:16:38.777Z,8.48
2023-03-21T22:19:06.430Z,7.97
2023-03-21T22:21:35.311Z,5.07
2023-03-21T22:24:02.836Z,5.00
2023-03-21T22:26:30.543Z,11.93
2023-03-21T22:28:59.852Z,7.50
2023-03-21T22:31:27.527Z,7.95
2023-03-21T22:33:55.090Z,6.20
2023-03-21T22:36:22.588Z,6.80
2023-03-21T22:38:51.456Z,5.28
2023-03-21T22:41:18.991Z,6.97
2023-03-21T22:43:46.536Z,5.25
2023-03-21T22:46:14.068Z,4.65
2023-03-21T22:48:41.862Z,6.82
2023-03-21T22:51:10.328Z,5.40
2023-03-21T22:53:37.858Z,5.07
2023-03-21T22:56:07.812Z,6.13
2023-03-21T22:58:35.519Z,7.97
2023-03-21T23:01:05.171Z,6.63
2023-03-21T23:03:32.777Z,7.68
2023-03-21T23:06:01.406Z,4.35
2023-03-21T23:08:29.151Z,4.45
2023-03-21T23:10:56.994Z,7.15
2023-03-21T23:13:26.670Z,6.80
2023-03-21T23:15:54.221Z,5.60
2023-03-21T23:18:21.872Z,6.65
2023-03-21T23:20:50.245Z,4.22
2023-03-21T23:23:18.321Z,4.50
2023-03-21T23:25:46.152Z,3.72
2023-03-21T23:28:13.723Z,5.05
2023-03-21T23:30:42.575Z,4.00
2023-03-21T23:33:10.145Z,2.67
2023-03-21T23:35:38.344Z,5.13
2023-03-21T23:38:06.373Z,3.13
2023-03-21T23:40:33.912Z,4.10
2023-03-21T23:43:01.444Z,2.83
2023-03-21T23:45:28.984Z,3.92
2023-03-21T23:47:57.856Z,5.05
2023-03-21T23:50:25.428Z,6.18
2023-03-21T23:52:52.972Z,3.35
2023-03-21T23:55:20.651Z,3.20
2023-03-21T23:57:49.777Z,5.57
